»·PEaware :: N8137R KPSP-L35

N8137R :: KPSP-L35

FLIGHT INFORMATION

Flight Status: Arrived
Operator: Privately registered:
United States
More flights under this callsign
Pilot: Roland W. (25691)
Aircraft: BEECH AIRCRAFT BONANZA
(BE35)
More flights by this aircraft type
Origin: KPSP Palm Springs Intl
United States
Destination: L35 Big Bear City
United States
More flights between these airports :: More routes between these airports
Route: +CATH1 PSP V386 OKACO
File this flight plan on PilotEdge
Remarks:
Altitude:
(Current/Filed)
10,000ft
Speed:
(Current/Filed)
168kts
Departed: 25-Aug-20 02:13 PM
Arrived: 25-Aug-20 02:33 PM
Distance/Time
Traveled:
31nm/0:19
Distance/Time
To Go:
Arrived

Flight Plot

Page will automatically refresh every two minutes.

Flight plan parsing failed; only flown route is shown


Map Options




Map Legend


Flown Route
Filed Route
Departure Airport
Arrival Airport
Navaid (VOR, NDB)
Fix

Horizontal Profiles

Position Reports

Time Latitude Longitude Heading Altitude Ground
Speed
25-Aug-20 13:36 33.823819 -116.498771 53 480ft 0kts
25-Aug-20 13:37 33.823819 -116.498771 53 480ft 0kts
25-Aug-20 13:38 33.823819 -116.498771 53 480ft 0kts
25-Aug-20 13:39 33.823819 -116.498771 53 480ft 0kts
25-Aug-20 13:40 33.823819 -116.498771 53 480ft 0kts
25-Aug-20 13:41 33.823819 -116.498771 53 480ft 0kts
25-Aug-20 13:42 33.823819 -116.498771 53 480ft 0kts
25-Aug-20 13:43 33.823819 -116.498771 53 480ft 0kts
25-Aug-20 13:44 33.823819 -116.498771 53 480ft 0kts
25-Aug-20 13:45 33.823819 -116.498771 53 480ft 0kts
25-Aug-20 13:46 33.823821 -116.498768 53 480ft 0kts
25-Aug-20 13:47 33.823822 -116.498766 53 480ft 0kts
25-Aug-20 13:48 33.823824 -116.498763 53 480ft 0kts
25-Aug-20 13:49 33.823825 -116.498761 53 480ft 0kts
25-Aug-20 13:50 33.823827 -116.498758 53 480ft 0kts
25-Aug-20 13:51 33.823828 -116.498756 53 480ft 0kts
25-Aug-20 13:52 33.823830 -116.498753 53 480ft 0kts
25-Aug-20 13:53 33.823832 -116.498751 53 480ft 0kts
25-Aug-20 13:54 33.823833 -116.498748 53 480ft 0kts
25-Aug-20 13:55 33.823835 -116.498746 53 480ft 0kts
25-Aug-20 13:56 33.823836 -116.498743 53 480ft 0kts
25-Aug-20 13:57 33.823838 -116.498741 53 480ft 0kts
25-Aug-20 13:58 33.823839 -116.498738 53 480ft 0kts
25-Aug-20 13:59 33.823841 -116.498736 53 480ft 0kts
25-Aug-20 14:00 33.823842 -116.498733 53 480ft 0kts
25-Aug-20 14:01 33.823844 -116.498731 53 480ft 0kts
25-Aug-20 14:02 33.823941 -116.498683 340 480ft 0kts
25-Aug-20 14:03 33.823944 -116.498684 340 480ft 0kts
25-Aug-20 14:04 33.823946 -116.498685 340 480ft 0kts
25-Aug-20 14:05 33.823947 -116.498686 340 480ft 0kts
25-Aug-20 14:06 33.823949 -116.498686 340 480ft 0kts
25-Aug-20 14:07 33.823951 -116.498687 340 480ft 0kts
25-Aug-20 14:08 33.823953 -116.498688 340 480ft 0kts
25-Aug-20 14:09 33.824613 -116.499586 241 480ft 0kts
25-Aug-20 14:10 33.824612 -116.499588 241 480ft 0kts
25-Aug-20 14:11 33.824611 -116.499591 241 480ft 0kts
25-Aug-20 14:12 33.828210 -116.503509 320 507ft 72kts
25-Aug-20 14:13 33.846513 -116.520053 321 1555ft 84kts
25-Aug-20 14:14 33.868066 -116.536173 329 2596ft 112kts
25-Aug-20 14:15 33.893051 -116.558453 324 4430ft 112kts
25-Aug-20 14:16 33.915190 -116.549580 115 6226ft 116kts
25-Aug-20 14:17 33.921960 -116.517181 20 7506ft 125kts
25-Aug-20 14:18 33.956264 -116.522735 331 8752ft 130kts
25-Aug-20 14:19 33.992939 -116.534358 348 9765ft 145kts
25-Aug-20 14:20 34.034497 -116.541762 348 10138ft 162kts
25-Aug-20 14:21 34.080448 -116.538412 10 10195ft 175kts
25-Aug-20 14:22 34.132044 -116.524833 11 10232ft 197kts
25-Aug-20 14:23 34.186097 -116.518854 324 10104ft 200kts
25-Aug-20 14:24 34.228867 -116.559654 328 9665ft 192kts
25-Aug-20 14:25 34.264742 -116.600859 260 9526ft 167kts
25-Aug-20 14:26 34.266897 -116.653371 271 9449ft 156kts
25-Aug-20 14:27 34.266026 -116.702570 263 9156ft 138kts
25-Aug-20 14:28 34.266083 -116.748814 267 8374ft 123kts
25-Aug-20 14:29 34.264550 -116.785414 270 7996ft 114kts
25-Aug-20 14:30 34.264499 -116.821891 271 7221ft 101kts
25-Aug-20 14:31 34.263985 -116.850287 268 6756ft 73kts
25-Aug-20 14:32 34.263532 -116.859080 194 6755ft 3kts
25-Aug-20 14:33 34.263241 -116.855081 90 6755ft 11kts
25-Aug-20 14:34 34.262667 -116.854020 175 6755ft 0kts
25-Aug-20 14:35 34.262667 -116.854020 175 6755ft 0kts

Navigation Log

Ident Type
Flight plan parsing failed, navigation log unavailable